createdAt,value
2024-04-11T00:00:26.549Z,86.67
2024-04-11T00:02:53.362Z,86.25
2024-04-11T00:05:21.558Z,86.30
2024-04-11T00:07:48.441Z,86.24
2024-04-11T00:10:15.193Z,85.95
2024-04-11T00:12:44.133Z,86.00
2024-04-11T00:15:11.232Z,85.44
2024-04-11T00:17:37.949Z,86.39
2024-04-11T00:20:05.149Z,85.98
2024-04-11T00:22:32.218Z,86.06
2024-04-11T00:24:58.774Z,86.20
2024-04-11T00:27:25.346Z,85.82
2024-04-11T00:29:52.328Z,87.02
2024-04-11T00:32:19.064Z,86.84
2024-04-11T00:34:45.714Z,86.44
2024-04-11T00:37:16.620Z,87.09
2024-04-11T00:39:43.193Z,88.03
2024-04-11T00:42:09.847Z,88.31
2024-04-11T00:44:38.778Z,87.72
2024-04-11T00:47:10.444Z,87.26
2024-04-11T00:49:41.825Z,87.62
2024-04-11T00:52:11.479Z,88.27
2024-04-11T00:54:38.223Z,87.87
2024-04-11T00:57:09.273Z,87.39
2024-04-11T00:59:38.427Z,88.08
2024-04-11T01:02:05.943Z,86.96
2024-04-11T01:04:36.874Z,87.15
2024-04-11T01:07:11.737Z,86.81
2024-04-11T01:09:45.785Z,86.71
2024-04-11T01:12:18.160Z,87.15
2024-04-11T01:14:47.500Z,87.43
2024-04-11T01:17:19.352Z,87.51
2024-04-11T01:19:50.188Z,88.12
2024-04-11T01:22:20.360Z,88.20
2024-04-11T01:24:48.145Z,87.51
2024-04-11T01:27:18.183Z,87.55
2024-04-11T01:29:44.964Z,87.85
2024-04-11T01:32:11.706Z,87.48
2024-04-11T01:34:41.137Z,88.01
2024-04-11T01:37:09.986Z,87.33
2024-04-11T01:39:38.354Z,87.56
2024-04-11T01:42:05.697Z,88.27
2024-04-11T01:44:32.460Z,88.94
2024-04-11T01:47:01.620Z,88.78
2024-04-11T01:49:32.021Z,88.31
2024-04-11T01:52:11.262Z,87.86
2024-04-11T01:54:38.661Z,87.37
2024-04-11T01:57:05.328Z,88.00
2024-04-11T01:59:34.653Z,88.84
2024-04-11T02:02:09.262Z,89.05
2024-04-11T02:04:36.042Z,88.59
2024-04-11T02:07:06.008Z,88.52
2024-04-11T02:09:36.056Z,88.23
2024-04-11T02:12:02.735Z,88.70
2024-04-11T02:14:30.839Z,88.34
2024-04-11T02:17:00.695Z,88.09
2024-04-11T02:19:27.701Z,87.86
2024-04-11T02:21:56.499Z,88.39
2024-04-11T02:24:28.295Z,88.28
2024-04-11T02:26:54.866Z,88.28
2024-04-11T02:29:21.671Z,86.88
2024-04-11T02:31:48.217Z,88.48
2024-04-11T02:34:15.069Z,88.29
2024-04-11T02:36:44.618Z,88.43
2024-04-11T02:39:14.268Z,88.48
2024-04-11T02:41:41.573Z,87.94
2024-04-11T02:44:08.072Z,87.95
2024-04-11T02:46:36.293Z,88.14
2024-04-11T02:49:06.524Z,87.69
2024-04-11T02:51:37.253Z,87.80
2024-04-11T02:54:08.405Z,87.37
2024-04-11T02:56:35.205Z,87.86
2024-04-11T02:59:01.943Z,88.76
2024-04-11T03:01:29.398Z,88.87
2024-04-11T03:03:59.994Z,88.89
2024-04-11T03:06:32.547Z,89.23
2024-04-11T03:08:59.751Z,88.91
2024-04-11T03:11:26.667Z,88.16
2024-04-11T03:13:57.535Z,88.91
2024-04-11T03:16:31.444Z,88.52
2024-04-11T03:18:58.602Z,88.36
2024-04-11T03:21:27.318Z,88.75
2024-04-11T03:23:54.162Z,89.12
2024-04-11T03:26:20.935Z,88.79
2024-04-11T03:28:47.585Z,89.47
2024-04-11T03:31:20.012Z,89.67
2024-04-11T03:33:49.470Z,89.94
2024-04-11T03:36:16.304Z,89.98
2024-04-11T03:38:43.152Z,90.05
2024-04-11T03:41:13.148Z,89.90
2024-04-11T03:43:43.633Z,89.87
2024-04-11T03:46:25.548Z,90.23
2024-04-11T03:48:57.486Z,90.19
2024-04-11T03:51:34.696Z,89.83
2024-04-11T03:54:02.354Z,89.73
2024-04-11T03:56:29.529Z,89.87
2024-04-11T03:59:00.461Z,89.68
2024-04-11T04:01:28.729Z,89.61
2024-04-11T04:04:06.120Z,89.27
2024-04-11T04:06:35.299Z,89.04
2024-04-11T04:09:10.244Z,87.50
2024-04-11T04:11:37.851Z,87.92
2024-04-11T04:14:04.751Z,88.90
2024-04-11T04:16:31.408Z,88.87
2024-04-11T04:18:58.735Z,89.53
2024-04-11T04:21:27.705Z,89.37
2024-04-11T04:23:57.277Z,89.36
2024-04-11T04:26:31.749Z,89.86
2024-04-11T04:29:01.855Z,89.37
2024-04-11T04:31:32.277Z,89.73
2024-04-11T04:34:03.564Z,89.12
2024-04-11T04:36:47.651Z,90.81
2024-04-11T04:39:18.168Z,90.99
2024-04-11T04:41:49.445Z,90.68
2024-04-11T04:44:16.216Z,90.53
2024-04-11T04:46:44.846Z,89.33
2024-04-11T04:49:12.353Z,89.73
2024-04-11T04:51:43.432Z,90.62
2024-04-11T04:54:12.554Z,90.39
2024-04-11T04:56:43.442Z,90.09
2024-04-11T04:59:10.654Z,90.51
2024-04-11T05:01:38.016Z,89.98
2024-04-11T05:04:07.663Z,89.79
2024-04-11T05:06:34.404Z,89.99
2024-04-11T05:09:01.007Z,89.57
2024-04-11T05:11:33.337Z,89.29
2024-04-11T05:14:00.353Z,88.81
2024-04-11T05:16:29.807Z,88.21
2024-04-11T05:18:56.539Z,88.39
2024-04-11T05:21:27.622Z,88.29
2024-04-11T05:23:55.777Z,88.41
2024-04-11T05:26:25.252Z,88.38
2024-04-11T05:28:53.679Z,87.45
2024-04-11T05:31:27.146Z,87.47
2024-04-11T05:33:56.017Z,86.62
2024-04-11T05:36:27.000Z,86.32
2024-04-11T05:38:53.860Z,85.83
2024-04-11T05:41:21.182Z,86.17
2024-04-11T05:43:53.291Z,85.96
2024-04-11T05:46:20.912Z,85.44
2024-04-11T05:48:52.868Z,84.64
2024-04-11T05:51:22.876Z,84.15
2024-04-11T05:53:50.095Z,83.72
2024-04-11T05:56:16.733Z,83.42
2024-04-11T05:58:44.774Z,83.86
2024-04-11T06:01:17.540Z,83.21
2024-04-11T06:03:51.973Z,83.84
2024-04-11T06:06:22.070Z,83.33
2024-04-11T06:08:49.697Z,83.04
2024-04-11T06:11:19.527Z,82.68
2024-04-11T06:13:53.724Z,82.29
2024-04-11T06:16:26.258Z,82.27
2024-04-11T06:18:55.740Z,81.76
2024-04-11T06:21:33.236Z,80.59
2024-04-11T06:24:03.283Z,79.95
2024-04-11T06:26:32.274Z,77.50
2024-04-11T06:28:58.829Z,77.03
2024-04-11T06:31:29.841Z,76.30
2024-04-11T06:33:57.686Z,76.47
2024-04-11T06:36:25.519Z,74.84
2024-04-11T06:38:52.664Z,73.62
2024-04-11T06:41:23.986Z,72.61
2024-04-11T06:43:51.845Z,71.84
2024-04-11T06:46:19.602Z,71.80
2024-04-11T06:48:48.743Z,71.15
2024-04-11T06:51:20.953Z,70.37
2024-04-11T06:53:48.119Z,71.02
2024-04-11T06:56:19.002Z,70.13
2024-04-11T06:58:46.883Z,69.55
2024-04-11T07:01:17.005Z,68.61
2024-04-11T07:03:44.578Z,69.21
2024-04-11T07:06:22.992Z,67.89
2024-04-11T07:08:50.944Z,68.79
2024-04-11T07:11:21.667Z,67.24
2024-04-11T07:13:55.033Z,67.01
2024-04-11T07:16:27.336Z,66.54
2024-04-11T07:18:57.026Z,65.96
2024-04-11T07:21:26.912Z,65.74
2024-04-11T07:23:56.548Z,64.66
2024-04-11T07:26:24.470Z,64.30
2024-04-11T07:28:52.532Z,63.75
2024-04-11T07:31:19.045Z,61.88
2024-04-11T07:33:49.716Z,62.30
2024-04-11T07:36:23.814Z,61.95
2024-04-11T07:38:51.413Z,60.97
2024-04-11T07:41:21.709Z,58.96
2024-04-11T07:43:52.869Z,58.53
2024-04-11T07:46:21.003Z,58.21
2024-04-11T07:48:48.820Z,57.78
2024-04-11T07:51:22.083Z,57.84
2024-04-11T07:53:49.742Z,57.42
2024-04-11T07:56:26.737Z,57.20
2024-04-11T07:58:57.257Z,57.11
2024-04-11T08:01:38.055Z,57.08
2024-04-11T08:04:08.717Z,55.82
2024-04-11T08:06:35.731Z,54.91
2024-04-11T08:09:07.793Z,54.31
2024-04-11T08:11:37.291Z,53.86
2024-04-11T08:14:07.541Z,54.13
2024-04-11T08:16:34.911Z,53.16
2024-04-11T08:19:10.509Z,52.09
2024-04-11T08:21:37.339Z,51.97
2024-04-11T08:24:04.386Z,51.44
2024-04-11T08:26:33.969Z,50.75
2024-04-11T08:29:01.451Z,50.15
2024-04-11T08:31:31.462Z,50.02
2024-04-11T08:34:01.879Z,47.37
2024-04-11T08:36:30.257Z,47.45
2024-04-11T08:38:59.460Z,47.41
2024-04-11T08:41:27.003Z,46.31
2024-04-11T08:43:53.801Z,42.43
2024-04-11T08:46:20.674Z,41.98
2024-04-11T08:48:47.833Z,42.29
2024-04-11T08:51:22.900Z,43.02
2024-04-11T08:54:02.774Z,43.42
2024-04-11T08:56:33.816Z,43.56
2024-04-11T08:59:00.641Z,42.94
2024-04-11T09:01:27.673Z,43.41
2024-04-11T09:03:55.161Z,42.51
2024-04-11T09:06:26.191Z,42.37
2024-04-11T09:08:58.700Z,40.39
2024-04-11T09:11:28.208Z,41.29
2024-04-11T09:13:59.678Z,40.85
2024-04-11T09:16:30.025Z,41.27
2024-04-11T09:19:11.070Z,40.84
2024-04-11T09:21:46.376Z,41.80
2024-04-11T09:24:20.149Z,41.43
2024-04-11T09:26:50.777Z,41.26
2024-04-11T09:29:23.060Z,40.73
2024-04-11T09:31:53.163Z,40.17
2024-04-11T09:34:22.314Z,39.89
2024-04-11T09:36:53.398Z,39.48
2024-04-11T09:39:47.599Z,39.63
2024-04-11T09:42:20.436Z,38.82
2024-04-11T09:44:50.418Z,39.88
2024-04-11T09:47:28.408Z,40.81
2024-04-11T09:50:06.955Z,39.79
2024-04-11T09:52:41.372Z,40.30
2024-04-11T09:55:11.455Z,39.94
2024-04-11T09:57:45.854Z,39.77
2024-04-11T10:00:24.365Z,39.60
2024-04-11T10:02:54.955Z,39.95
2024-04-11T10:05:26.889Z,40.57
2024-04-11T10:08:02.598Z,39.25
2024-04-11T10:10:32.710Z,40.51
2024-04-11T10:13:05.407Z,40.15
2024-04-11T10:15:35.765Z,39.78
2024-04-11T10:18:13.025Z,39.96
2024-04-11T10:21:03.261Z,40.48
2024-04-11T10:23:38.502Z,39.21
2024-04-11T10:26:15.861Z,39.54
2024-04-11T10:28:42.909Z,38.98
2024-04-11T10:31:10.101Z,39.64
2024-04-11T10:33:48.582Z,38.20
2024-04-11T10:36:18.703Z,39.16
2024-04-11T10:38:46.814Z,39.16
2024-04-11T10:41:17.737Z,39.39
2024-04-11T10:43:46.754Z,39.35
2024-04-11T10:46:14.127Z,39.36
2024-04-11T10:48:46.240Z,39.59
2024-04-11T10:51:15.171Z,39.05
2024-04-11T10:53:48.581Z,38.58
2024-04-11T10:56:23.653Z,38.13
2024-04-11T10:58:57.224Z,38.97
2024-04-11T11:01:27.723Z,39.23
2024-04-11T11:03:59.400Z,38.76
2024-04-11T11:06:30.615Z,39.31
2024-04-11T11:09:12.143Z,39.30
2024-04-11T11:11:41.351Z,38.84
2024-04-11T11:14:15.593Z,39.78
2024-04-11T11:16:48.414Z,40.70
2024-04-11T11:19:17.522Z,39.42
2024-04-11T11:21:51.815Z,39.34
2024-04-11T11:24:25.304Z,38.75
2024-04-11T11:27:06.624Z,38.76
2024-04-11T11:29:33.291Z,39.22
2024-04-11T11:32:05.924Z,37.56
2024-04-11T11:34:37.239Z,38.46
2024-04-11T11:37:04.714Z,38.33
2024-04-11T11:39:37.272Z,38.43
2024-04-11T11:42:10.633Z,39.25
2024-04-11T11:45:06.455Z,38.74
2024-04-11T11:47:35.911Z,39.03
2024-04-11T11:50:10.689Z,39.46
2024-04-11T11:52:46.804Z,39.06
2024-04-11T11:55:18.251Z,38.48
2024-04-11T11:57:58.488Z,37.06
2024-04-11T12:00:33.679Z,37.13
2024-04-11T12:03:20.820Z,37.78
2024-04-11T12:05:54.715Z,37.19
2024-04-11T12:08:21.384Z,37.31
2024-04-11T12:11:14.000Z,36.41
2024-04-11T12:13:44.236Z,37.26
2024-04-11T12:16:17.197Z,37.91
2024-04-11T12:18:45.188Z,38.08
2024-04-11T12:21:15.217Z,38.37
2024-04-11T12:23:44.819Z,38.57
2024-04-11T12:26:13.424Z,38.41
2024-04-11T12:28:46.636Z,38.65
2024-04-11T12:31:23.347Z,38.43
2024-04-11T12:36:37.486Z,38.83
2024-04-11T12:39:22.793Z,38.86
2024-04-11T12:41:57.828Z,38.66
2024-04-11T12:44:32.200Z,39.36
2024-04-11T12:47:14.872Z,39.63
2024-04-11T12:49:50.765Z,40.21
2024-04-11T12:52:25.495Z,38.76
2024-04-11T12:55:00.411Z,39.22
2024-04-11T12:57:31.396Z,39.58
2024-04-11T13:00:09.164Z,40.29
2024-04-11T13:02:41.159Z,40.08
2024-04-11T13:05:14.991Z,39.57
2024-04-11T13:07:47.154Z,40.67
2024-04-11T13:10:13.834Z,39.62
2024-04-11T13:12:45.109Z,39.25
2024-04-11T13:15:20.610Z,39.57
2024-04-11T13:17:54.266Z,39.94
2024-04-11T13:20:29.254Z,39.87
2024-04-11T13:23:10.850Z,40.17
2024-04-11T13:25:43.988Z,40.42
2024-04-11T13:28:14.185Z,40.91
2024-04-11T13:30:43.824Z,41.21
2024-04-11T13:33:17.362Z,41.07
2024-04-11T13:35:52.371Z,40.40
2024-04-11T13:38:23.630Z,40.44
2024-04-11T13:41:12.865Z,40.60
2024-04-11T13:43:43.770Z,40.34
2024-04-11T13:46:14.009Z,39.89
2024-04-11T13:48:51.732Z,40.14
2024-04-11T13:51:20.329Z,39.48
2024-04-11T13:54:03.413Z,40.34
2024-04-11T13:56:39.404Z,40.67
2024-04-11T13:59:10.204Z,39.92
2024-04-11T14:01:44.271Z,39.06
2024-04-11T14:04:18.010Z,39.48
2024-04-11T14:06:51.564Z,39.48
2024-04-11T14:09:20.092Z,38.27
2024-04-11T14:11:53.597Z,40.39
2024-04-11T14:14:23.557Z,39.96
2024-04-11T14:16:54.239Z,39.51
2024-04-11T14:19:36.985Z,40.09
2024-04-11T14:22:30.822Z,39.62
2024-04-11T14:25:10.366Z,40.06
2024-04-11T14:27:40.126Z,40.46
2024-04-11T14:30:07.643Z,40.19
2024-04-11T14:32:52.785Z,40.78
2024-04-11T14:35:43.797Z,40.71
2024-04-11T14:38:20.790Z,40.29
2024-04-11T14:40:55.888Z,40.39
2024-04-11T14:43:22.851Z,41.21
2024-04-11T14:45:49.402Z,40.91
2024-04-11T14:48:35.120Z,41.92
2024-04-11T14:51:09.582Z,41.82
2024-04-11T14:53:39.883Z,42.68
2024-04-11T14:56:19.764Z,42.94
2024-04-11T14:58:49.534Z,42.47
2024-04-11T15:01:31.424Z,42.23
2024-04-11T15:04:06.631Z,41.75
2024-04-11T15:06:37.391Z,42.06
2024-04-11T15:09:24.211Z,42.14
2024-04-11T15:12:00.463Z,42.57
2024-04-11T15:14:34.071Z,43.07
2024-04-11T15:17:20.218Z,42.60
2024-04-11T15:19:53.190Z,42.55
2024-04-11T15:22:26.217Z,43.24
2024-04-11T15:24:54.495Z,43.80
2024-04-11T15:27:30.464Z,43.87
2024-04-11T15:30:06.591Z,44.02
2024-04-11T15:32:38.221Z,43.17
2024-04-11T15:35:10.716Z,43.03
2024-04-11T15:38:18.005Z,42.54
2024-04-11T15:40:51.980Z,42.02
2024-04-11T15:43:28.650Z,42.53
2024-04-11T15:46:08.220Z,41.61
2024-04-11T15:48:37.883Z,41.97
2024-04-11T15:51:08.678Z,42.28
2024-04-11T15:53:38.264Z,40.79
2024-04-11T15:56:14.736Z,40.66
2024-04-11T15:58:54.150Z,41.26
2024-04-11T16:01:29.436Z,41.23
2024-04-11T16:03:57.210Z,42.18
2024-04-11T16:06:33.116Z,42.19
2024-04-11T16:08:59.864Z,42.50
2024-04-11T16:11:26.628Z,42.85
2024-04-11T16:13:57.578Z,43.07
2024-04-11T16:16:30.638Z,43.32
2024-04-11T16:18:58.221Z,43.17
2024-04-11T16:21:25.198Z,42.83
2024-04-11T16:23:58.312Z,42.47
2024-04-11T16:26:30.240Z,42.00
2024-04-11T16:29:07.943Z,42.58
2024-04-11T16:31:39.467Z,42.17
2024-04-11T16:34:11.596Z,40.54
2024-04-11T16:36:48.619Z,39.38
2024-04-11T16:39:31.277Z,39.89
2024-04-11T16:42:15.890Z,39.88
2024-04-11T16:44:49.737Z,40.10
2024-04-11T16:47:22.413Z,40.45
2024-04-11T16:49:54.193Z,41.15
2024-04-11T16:52:25.880Z,41.15
2024-04-11T16:55:01.858Z,41.31
2024-04-11T16:57:39.709Z,42.96
2024-04-11T17:00:28.131Z,43.20
2024-04-11T17:02:59.648Z,43.17
2024-04-11T17:05:29.721Z,44.26
2024-04-11T17:07:58.942Z,45.33
2024-04-11T17:10:35.019Z,46.14
2024-04-11T17:13:02.621Z,46.46
2024-04-11T17:15:32.177Z,46.58
2024-04-11T17:18:07.855Z,47.50
2024-04-11T17:20:50.209Z,47.96
2024-04-11T17:23:23.025Z,48.40
2024-04-11T17:25:49.996Z,49.14
2024-04-11T17:28:37.828Z,47.85
2024-04-11T17:31:04.624Z,49.69
2024-04-11T17:33:35.174Z,49.97
2024-04-11T17:36:25.200Z,50.64
2024-04-11T17:39:06.167Z,51.38
2024-04-11T17:41:42.842Z,51.78
2024-04-11T17:44:15.869Z,52.53
2024-04-11T17:46:56.895Z,53.91
2024-04-11T17:49:40.361Z,52.92
2024-04-11T17:52:25.095Z,53.17
2024-04-11T17:54:52.393Z,54.49
2024-04-11T17:57:19.131Z,55.57
2024-04-11T17:59:49.465Z,56.50
2024-04-11T18:02:22.839Z,54.61
2024-04-11T18:04:52.863Z,54.51
2024-04-11T18:07:26.071Z,54.46
2024-04-11T18:09:54.498Z,53.77
2024-04-11T18:12:22.985Z,54.77
2024-04-11T18:14:49.892Z,54.32
2024-04-11T18:17:16.522Z,54.07
2024-04-11T18:19:46.545Z,54.65
2024-04-11T18:22:13.679Z,54.82
2024-04-11T18:24:45.556Z,56.01
2024-04-11T18:27:13.391Z,55.55
2024-04-11T18:29:45.457Z,54.46
2024-04-11T18:32:15.124Z,57.54
2024-04-11T18:34:47.049Z,58.25
2024-04-11T18:37:16.690Z,58.77
2024-04-11T18:40:01.727Z,57.10
2024-04-11T18:42:45.615Z,56.52
2024-04-11T18:45:31.054Z,57.34
2024-04-11T18:48:00.306Z,59.17
2024-04-11T18:50:34.758Z,60.26
2024-04-11T18:53:04.191Z,59.86
2024-04-11T18:55:44.998Z,58.15
2024-04-11T18:58:15.653Z,57.97
2024-04-11T19:00:45.251Z,58.91
2024-04-11T19:03:19.254Z,60.54
2024-04-11T19:05:53.255Z,61.80
2024-04-11T19:08:26.681Z,62.77
2024-04-11T19:10:55.189Z,63.68
2024-04-11T19:13:25.844Z,63.46
2024-04-11T19:15:56.729Z,64.78
2024-04-11T19:18:26.619Z,63.78
2024-04-11T19:20:57.696Z,64.36
2024-04-11T19:23:37.344Z,63.26
2024-04-11T19:26:15.556Z,60.59
2024-04-11T19:28:44.742Z,61.20
2024-04-11T19:31:13.273Z,60.91
2024-04-11T19:33:45.819Z,60.86
2024-04-11T19:36:16.303Z,62.33
2024-04-11T19:38:44.773Z,62.49
2024-04-11T19:41:11.728Z,62.97
2024-04-11T19:43:38.377Z,62.37
2024-04-11T19:46:09.281Z,64.20
2024-04-11T19:48:36.356Z,63.29
2024-04-11T19:51:15.163Z,62.85
2024-04-11T19:53:43.444Z,62.97
2024-04-11T19:56:19.770Z,63.27
2024-04-11T19:59:02.086Z,63.15
2024-04-11T20:01:52.638Z,65.13
2024-04-11T20:04:21.981Z,65.51
2024-04-11T20:06:50.433Z,65.32
2024-04-11T20:09:17.693Z,65.48
2024-04-11T20:11:50.812Z,65.75
2024-04-11T20:14:29.756Z,65.16
2024-04-11T20:16:59.690Z,65.71
2024-04-11T20:19:26.412Z,65.86
2024-04-11T20:21:55.785Z,65.84
2024-04-11T20:24:28.247Z,66.05
2024-04-11T20:26:55.047Z,65.78
2024-04-11T20:29:24.084Z,65.92
2024-04-11T20:31:54.026Z,66.44
2024-04-11T20:34:21.849Z,66.17
2024-04-11T20:36:51.064Z,66.35
2024-04-11T20:39:36.241Z,66.40
2024-04-11T20:42:17.804Z,67.04
2024-04-11T20:44:55.372Z,66.87
2024-04-11T20:47:22.483Z,66.94
2024-04-11T20:50:12.154Z,66.84
2024-04-11T20:52:57.448Z,67.09
2024-04-11T20:55:42.398Z,67.17
2024-04-11T20:58:28.568Z,67.13
2024-04-11T21:01:13.882Z,67.12
2024-04-11T21:04:01.979Z,67.46
2024-04-11T21:06:47.303Z,67.43
2024-04-11T21:09:32.728Z,67.91
2024-04-11T21:12:17.950Z,67.91
2024-04-11T21:15:03.435Z,67.70
2024-04-11T21:17:48.724Z,67.56
2024-04-11T21:20:34.139Z,67.90
2024-04-11T21:23:19.377Z,68.32
2024-04-11T21:26:07.299Z,67.97
2024-04-11T21:28:52.244Z,68.08
2024-04-11T21:31:37.261Z,68.10
2024-04-11T21:34:07.301Z,68.15
2024-04-11T21:36:36.451Z,68.42
2024-04-11T21:39:04.913Z,68.24
2024-04-11T21:41:38.023Z,68.07
2024-04-11T21:44:08.301Z,68.26
2024-04-11T21:46:41.998Z,68.49
2024-04-11T21:49:15.902Z,68.42
2024-04-11T21:51:45.530Z,68.44
2024-04-11T21:54:12.146Z,68.13
2024-04-11T21:56:42.725Z,68.24
2024-04-11T21:59:11.399Z,68.70
2024-04-11T22:01:52.343Z,69.10
2024-04-11T22:04:34.629Z,69.06
2024-04-11T22:07:04.483Z,69.18
2024-04-11T22:09:42.148Z,69.42
2024-04-11T22:12:12.184Z,69.89
2024-04-11T22:14:45.513Z,70.40
2024-04-11T22:17:22.284Z,69.76
2024-04-11T22:20:01.454Z,70.79
2024-04-11T22:22:32.716Z,70.16
2024-04-11T22:25:01.809Z,70.64
2024-04-11T22:27:30.200Z,70.30
2024-04-11T22:29:59.229Z,70.84
2024-04-11T22:32:28.512Z,70.90
2024-04-11T22:34:58.588Z,71.52
2024-04-11T22:37:25.327Z,71.62
2024-04-11T22:39:53.364Z,71.41
2024-04-11T22:42:23.692Z,71.34
2024-04-11T22:44:51.244Z,71.06
2024-04-11T22:47:18.447Z,71.87
2024-04-11T22:49:48.264Z,71.49
2024-04-11T22:52:33.261Z,72.07
2024-04-11T22:55:07.711Z,72.23
2024-04-11T22:57:38.004Z,71.76
2024-04-11T23:00:28.560Z,71.96
2024-04-11T23:03:01.360Z,71.81
2024-04-11T23:05:28.383Z,72.25
2024-04-11T23:08:00.819Z,72.46
2024-04-11T23:10:41.437Z,72.66
2024-04-11T23:13:10.928Z,72.90
2024-04-11T23:15:54.448Z,73.03
2024-04-11T23:18:23.402Z,72.63
2024-04-11T23:21:03.824Z,73.18
2024-04-11T23:23:38.865Z,72.66
2024-04-11T23:26:06.371Z,72.31
2024-04-11T23:28:32.974Z,72.39
2024-04-11T23:31:06.085Z,72.63
2024-04-11T23:33:40.197Z,72.41
2024-04-11T23:36:08.135Z,72.62
2024-04-11T23:38:36.826Z,72.89
2024-04-11T23:41:07.377Z,73.09
2024-04-11T23:43:48.071Z,72.68
2024-04-11T23:46:28.144Z,72.74
2024-04-11T23:48:57.557Z,73.00
2024-04-11T23:51:29.787Z,73.29
2024-04-11T23:53:57.933Z,75.60
2024-04-11T23:56:45.556Z,74.70
2024-04-11T23:59:14.729Z,73.52
